createdAt,value
2018-10-02T00:02:24.689Z,90.30
2018-10-02T00:04:53.617Z,90.40
2018-10-02T00:07:21.904Z,90.30
2018-10-02T00:09:50.201Z,90.30
2018-10-02T00:12:23.842Z,90.50
2018-10-02T00:14:52.142Z,90.50
2018-10-02T00:17:20.411Z,90.30
2018-10-02T00:19:49.209Z,90.40
2018-10-02T00:22:17.482Z,90.30
2018-10-02T00:24:45.910Z,90.40
2018-10-02T00:27:14.290Z,90.40
2018-10-02T00:29:42.570Z,90.50
2018-10-02T00:32:11.001Z,90.60
2018-10-02T00:34:40.624Z,90.80
2018-10-02T00:37:08.865Z,91.10
2018-10-02T00:39:37.124Z,90.90
2018-10-02T00:42:06.081Z,91.00
2018-10-02T00:44:34.406Z,90.90
2018-10-02T00:47:02.680Z,90.90
2018-10-02T00:49:31.569Z,90.80
2018-10-02T00:51:59.826Z,91.00
2018-10-02T00:54:28.282Z,90.80
2018-10-02T00:56:56.573Z,90.80
2018-10-02T00:59:24.847Z,90.90
2018-10-02T01:01:53.125Z,90.70
2018-10-02T01:04:21.415Z,90.90
2018-10-02T01:06:49.684Z,91.10
2018-10-02T01:09:17.970Z,91.10
2018-10-02T01:11:46.279Z,91.20
2018-10-02T01:14:14.758Z,91.30
2018-10-02T01:16:43.017Z,91.20
2018-10-02T01:19:11.862Z,91.60
2018-10-02T01:21:40.119Z,91.50
2018-10-02T01:24:08.396Z,91.60
2018-10-02T01:26:36.847Z,91.60
2018-10-02T01:29:05.179Z,91.40
2018-10-02T01:31:33.477Z,91.30
2018-10-02T01:34:02.373Z,91.20
2018-10-02T01:36:30.673Z,91.00
2018-10-02T01:38:58.938Z,90.90
2018-10-02T01:41:27.572Z,91.00
2018-10-02T01:43:56.150Z,91.00
2018-10-02T01:46:24.389Z,90.90
2018-10-02T01:48:52.933Z,90.90
2018-10-02T01:51:21.455Z,91.00
2018-10-02T01:53:50.562Z,91.20
2018-10-02T01:56:19.579Z,91.10
2018-10-02T01:58:48.332Z,91.20
2018-10-02T02:01:16.598Z,91.10
2018-10-02T02:03:45.178Z,91.40
2018-10-02T02:06:13.501Z,91.50
2018-10-02T02:08:41.738Z,91.50
2018-10-02T02:11:10.019Z,91.60
2018-10-02T02:13:38.389Z,91.90
2018-10-02T02:16:06.725Z,91.80
2018-10-02T02:18:35.918Z,92.00
2018-10-02T02:21:04.172Z,92.10
2018-10-02T02:23:32.581Z,92.10
2018-10-02T02:26:01.082Z,91.90
2018-10-02T02:28:29.329Z,92.10
2018-10-02T02:30:58.494Z,92.70
2018-10-02T02:33:26.785Z,92.30
2018-10-02T02:35:55.029Z,92.50
2018-10-02T02:38:23.318Z,92.80
2018-10-02T02:40:51.559Z,92.70
2018-10-02T02:43:20.663Z,92.70
2018-10-02T02:45:49.066Z,92.70
2018-10-02T02:48:23.012Z,93.20
2018-10-02T02:50:51.949Z,93.20
2018-10-02T02:53:22.330Z,93.40
2018-10-02T02:55:51.313Z,93.30
2018-10-02T02:58:19.625Z,93.00
2018-10-02T03:00:48.040Z,93.20
2018-10-02T03:03:16.423Z,92.80
2018-10-02T03:05:44.737Z,93.00
2018-10-02T03:08:13.070Z,93.20
2018-10-02T03:10:41.369Z,93.40
2018-10-02T03:13:09.878Z,93.40
2018-10-02T03:15:38.281Z,93.40
2018-10-02T03:18:06.538Z,93.80
2018-10-02T03:20:35.778Z,93.90
2018-10-02T03:23:04.063Z,93.60
2018-10-02T03:25:32.353Z,94.30
2018-10-02T03:28:01.437Z,94.00
2018-10-02T03:30:30.462Z,94.20
2018-10-02T03:32:59.322Z,93.90
2018-10-02T03:35:27.622Z,94.10
2018-10-02T03:37:55.941Z,93.80
2018-10-02T03:40:24.789Z,93.80
2018-10-02T03:42:53.048Z,94.00
2018-10-02T03:45:22.211Z,94.00
2018-10-02T03:47:50.519Z,94.10
2018-10-02T03:50:18.789Z,94.10
2018-10-02T03:52:47.337Z,93.90
2018-10-02T03:55:16.057Z,93.60
2018-10-02T03:57:44.633Z,93.70
2018-10-02T04:00:12.970Z,93.70
2018-10-02T04:02:41.429Z,94.30
2018-10-02T04:05:10.322Z,94.00
2018-10-02T04:07:38.571Z,94.30
2018-10-02T04:10:07.562Z,94.10
2018-10-02T04:12:36.067Z,94.70
2018-10-02T04:15:04.914Z,94.20
2018-10-02T04:17:34.070Z,94.20
2018-10-02T04:20:02.538Z,94.30
2018-10-02T04:22:30.850Z,94.10
2018-10-02T04:24:59.128Z,94.10
2018-10-02T04:27:27.449Z,94.00
2018-10-02T04:29:55.701Z,94.40
2018-10-02T04:32:26.725Z,94.50
2018-10-02T04:34:54.984Z,94.50
2018-10-02T04:37:23.468Z,94.50
2018-10-02T04:39:51.733Z,94.60
2018-10-02T04:42:19.994Z,94.50
2018-10-02T04:44:48.285Z,94.30
2018-10-02T04:47:17.650Z,94.40
2018-10-02T04:49:46.058Z,94.60
2018-10-02T04:52:15.199Z,94.40
2018-10-02T04:54:43.953Z,94.30
2018-10-02T04:57:12.723Z,94.30
2018-10-02T04:59:41.080Z,94.30
2018-10-02T05:02:12.888Z,94.00
2018-10-02T05:04:41.376Z,94.30
2018-10-02T05:07:09.673Z,94.30
2018-10-02T05:09:37.970Z,94.10
2018-10-02T05:12:06.434Z,94.30
2018-10-02T05:14:34.855Z,94.70
2018-10-02T05:17:04.536Z,94.60
2018-10-02T05:19:32.804Z,94.70
2018-10-02T05:22:01.082Z,94.80
2018-10-02T05:24:29.412Z,94.80
2018-10-02T05:26:57.815Z,94.90
2018-10-02T05:29:26.106Z,94.90
2018-10-02T05:31:54.820Z,95.50
2018-10-02T05:34:23.362Z,95.20
2018-10-02T05:36:51.727Z,95.30
2018-10-02T05:39:20.035Z,95.50
2018-10-02T05:41:48.453Z,95.80
2018-10-02T05:44:16.780Z,95.60
2018-10-02T05:46:45.168Z,95.70
2018-10-02T05:49:14.217Z,96.10
2018-10-02T05:51:42.654Z,96.50
2018-10-02T05:54:11.024Z,96.60
2018-10-02T05:56:40.315Z,96.10
2018-10-02T05:59:10.080Z,96.10
2018-10-02T06:01:38.527Z,96.50
2018-10-02T06:04:06.899Z,95.90
2018-10-02T06:06:35.238Z,96.20
2018-10-02T06:09:05.309Z,96.20
2018-10-02T06:11:33.879Z,96.40
2018-10-02T06:14:02.449Z,96.00
2018-10-02T06:16:31.514Z,96.20
2018-10-02T06:19:00.129Z,96.70
2018-10-02T06:21:28.549Z,96.20
2018-10-02T06:23:57.048Z,96.40
2018-10-02T06:26:26.237Z,96.70
2018-10-02T06:28:54.709Z,96.80
2018-10-02T06:31:23.140Z,97.00
2018-10-02T06:33:51.790Z,97.00
2018-10-02T06:36:20.548Z,97.20
2018-10-02T06:38:49.061Z,96.90
2018-10-02T06:41:18.829Z,97.20
2018-10-02T06:43:47.703Z,97.20
2018-10-02T06:46:20.651Z,96.90
2018-10-02T06:48:49.212Z,96.80
2018-10-02T06:51:17.901Z,96.70
2018-10-02T06:53:47.761Z,97.20
2018-10-02T06:56:16.445Z,96.80
2018-10-02T06:58:45.063Z,96.80
2018-10-02T07:01:13.787Z,96.60
2018-10-02T07:03:42.703Z,96.60
2018-10-02T07:06:11.442Z,96.40
2018-10-02T07:08:40.148Z,96.30
2018-10-02T07:11:08.745Z,97.00
2018-10-02T07:13:38.964Z,96.60
2018-10-02T07:16:07.709Z,96.50
2018-10-02T07:18:36.464Z,96.80
2018-10-02T07:21:05.190Z,97.00
2018-10-02T07:23:34.142Z,96.90
2018-10-02T07:26:02.713Z,97.10
2018-10-02T07:28:31.312Z,96.70
2018-10-02T07:30:59.928Z,96.30
2018-10-02T07:33:28.597Z,96.50
2018-10-02T07:35:57.006Z,96.70
2018-10-02T07:38:25.510Z,96.80
2018-10-02T07:40:53.959Z,96.70
2018-10-02T07:43:22.427Z,96.80
2018-10-02T07:45:50.899Z,96.70
2018-10-02T07:48:19.502Z,96.70
2018-10-02T07:50:47.955Z,97.00
2018-10-02T07:53:16.658Z,96.70
2018-10-02T07:55:45.068Z,96.80
2018-10-02T07:58:13.623Z,96.70
2018-10-02T08:00:43.052Z,96.90
2018-10-02T08:03:12.550Z,96.80
2018-10-02T08:05:41.672Z,96.80
2018-10-02T08:08:38.696Z,97.00
2018-10-02T08:11:07.845Z,96.80
2018-10-02T08:13:37.033Z,96.90
2018-10-02T08:16:05.784Z,96.80
2018-10-02T08:18:36.080Z,97.00
2018-10-02T08:21:06.184Z,97.10
2018-10-02T08:23:34.896Z,96.90
2018-10-02T08:26:06.598Z,97.00
2018-10-02T08:28:35.735Z,97.40
2018-10-02T08:31:04.525Z,97.40
2018-10-02T08:33:33.359Z,97.30
2018-10-02T08:36:03.944Z,97.40
2018-10-02T08:38:33.561Z,97.50
2018-10-02T08:41:03.419Z,97.60
2018-10-02T08:43:33.766Z,97.50
2018-10-02T08:46:05.666Z,97.40
2018-10-02T08:48:35.433Z,98.30
2018-10-02T08:51:03.989Z,98.80
2018-10-02T08:53:32.756Z,99.40
2018-10-02T08:56:03.415Z,99.00
2018-10-02T08:58:32.316Z,99.60
2018-10-02T09:01:01.991Z,99.50
2018-10-02T09:03:33.597Z,99.20
2018-10-02T09:06:02.790Z,99.10
2018-10-02T09:08:33.921Z,99.00
2018-10-02T09:11:03.580Z,99.20
2018-10-02T09:13:32.222Z,99.10
2018-10-02T09:16:01.263Z,99.20
2018-10-02T09:18:30.417Z,99.30
2018-10-02T09:20:59.123Z,99.30
2018-10-02T09:23:27.955Z,99.20
2018-10-02T09:25:56.694Z,99.50
2018-10-02T09:28:26.917Z,99.40
2018-10-02T09:31:01.017Z,99.40
2018-10-02T09:33:34.797Z,99.80
2018-10-02T09:36:08.820Z,99.80
2018-10-02T09:38:43.041Z,99.60
2018-10-02T09:41:17.168Z,99.30
2018-10-02T09:43:56.027Z,99.30
2018-10-02T09:46:27.713Z,99.20
2018-10-02T09:48:58.287Z,99.30
2018-10-02T09:51:33.185Z,99.30
2018-10-02T09:54:02.552Z,99.20
2018-10-02T09:56:37.655Z,98.90
2018-10-02T09:59:07.945Z,99.20
2018-10-02T10:01:42.209Z,99.20
2018-10-02T10:04:14.418Z,99.20
2018-10-02T10:06:43.806Z,99.40
2018-10-02T10:09:14.512Z,99.30
2018-10-02T10:11:43.740Z,99.70
2018-10-02T10:14:15.216Z,99.70
2018-10-02T10:16:46.097Z,99.90
2018-10-02T10:19:15.315Z,99.40
2018-10-02T10:21:43.997Z,99.50
2018-10-02T10:24:12.654Z,99.50
2018-10-02T10:26:41.354Z,99.50
2018-10-02T10:29:09.992Z,99.60
2018-10-02T10:31:38.920Z,99.50
2018-10-02T10:34:07.429Z,99.50
2018-10-02T10:36:36.103Z,99.50
2018-10-02T10:39:06.719Z,99.40
2018-10-02T10:41:35.889Z,99.40
2018-10-02T10:44:04.920Z,99.30
2018-10-02T10:46:34.068Z,99.50
2018-10-02T10:49:02.601Z,99.50
2018-10-02T10:51:31.371Z,99.40
2018-10-02T10:54:01.699Z,99.00
2018-10-02T10:56:30.635Z,99.00
2018-10-02T10:58:59.358Z,99.00
2018-10-02T11:01:28.636Z,99.20
2018-10-02T11:03:57.262Z,99.30
2018-10-02T11:06:26.174Z,99.10
2018-10-02T11:08:54.735Z,99.10
2018-10-02T11:11:23.232Z,99.10
2018-10-02T11:13:51.855Z,98.80
2018-10-02T11:16:20.317Z,98.80
2018-10-02T11:18:48.817Z,98.40
2018-10-02T11:21:17.874Z,98.40
2018-10-02T11:23:46.420Z,98.20
2018-10-02T11:26:15.038Z,98.10
2018-10-02T11:28:43.453Z,98.10
2018-10-02T11:31:11.931Z,98.30
2018-10-02T11:33:41.315Z,97.60
2018-10-02T11:36:09.691Z,97.60
2018-10-02T11:38:38.599Z,96.40
2018-10-02T11:41:07.083Z,96.90
2018-10-02T11:43:35.961Z,96.40
2018-10-02T11:46:04.510Z,96.50
2018-10-02T11:48:32.962Z,96.80
2018-10-02T11:51:01.687Z,96.30
2018-10-02T11:53:31.214Z,96.50
2018-10-02T11:56:00.634Z,96.80
2018-10-02T11:58:28.982Z,96.40
2018-10-02T12:00:57.382Z,95.80
2018-10-02T12:03:25.718Z,95.50
2018-10-02T12:05:54.499Z,95.30
2018-10-02T12:08:23.048Z,96.00
2018-10-02T12:10:51.490Z,95.60
2018-10-02T12:13:19.906Z,96.00
2018-10-02T12:15:48.769Z,95.50
2018-10-02T12:18:17.159Z,96.20
2018-10-02T12:20:45.582Z,96.00
2018-10-02T12:25:49.452Z,95.60
2018-10-02T12:28:17.957Z,95.00
2018-10-02T12:30:46.375Z,94.90
2018-10-02T12:33:14.997Z,95.40
2018-10-02T12:35:43.529Z,95.60
2018-10-02T12:38:12.125Z,94.60
2018-10-02T12:40:41.783Z,94.60
2018-10-02T12:43:10.321Z,94.40
2018-10-02T12:45:38.604Z,94.80
2018-10-02T12:48:07.323Z,95.30
2018-10-02T12:50:36.356Z,95.10
2018-10-02T12:53:04.671Z,95.20
2018-10-02T12:55:33.006Z,94.70
2018-10-02T12:58:01.696Z,94.00
2018-10-02T13:00:32.082Z,94.20
2018-10-02T13:03:00.472Z,94.90
2018-10-02T13:05:28.891Z,94.80
2018-10-02T13:07:58.912Z,94.50
2018-10-02T13:10:27.961Z,94.40
2018-10-02T13:12:56.656Z,94.50
2018-10-02T13:15:25.096Z,94.80
2018-10-02T13:17:53.595Z,93.60
2018-10-02T13:20:23.257Z,94.50
2018-10-02T13:22:52.122Z,94.50
2018-10-02T13:25:20.606Z,93.90
2018-10-02T13:27:49.228Z,93.00
2018-10-02T13:30:18.506Z,93.30
2018-10-02T13:32:46.907Z,92.90
2018-10-02T13:35:17.534Z,92.90
2018-10-02T13:37:46.579Z,93.20
2018-10-02T13:40:15.486Z,92.00
2018-10-02T13:42:43.858Z,92.10
2018-10-02T13:45:14.604Z,91.40
2018-10-02T13:47:44.067Z,91.80
2018-10-02T13:50:12.471Z,92.40
2018-10-02T13:52:41.098Z,92.30
2018-10-02T13:55:09.530Z,91.80
2018-10-02T13:57:38.062Z,92.30
2018-10-02T14:00:06.910Z,90.90
2018-10-02T14:02:35.643Z,91.30
2018-10-02T14:05:05.089Z,91.10
2018-10-02T14:07:33.700Z,91.10
2018-10-02T14:10:04.284Z,91.10
2018-10-02T14:12:32.609Z,91.30
2018-10-02T14:15:01.193Z,90.90
2018-10-02T14:17:29.531Z,90.90
2018-10-02T14:19:57.855Z,91.10
2018-10-02T14:22:29.386Z,90.70
2018-10-02T14:24:58.667Z,91.10
2018-10-02T14:27:27.009Z,90.10
2018-10-02T14:29:57.316Z,90.30
2018-10-02T14:32:26.862Z,90.50
2018-10-02T14:34:55.202Z,90.60
2018-10-02T14:37:26.808Z,91.10
2018-10-02T14:39:55.191Z,91.10
2018-10-02T14:42:23.476Z,91.10
2018-10-02T14:44:52.788Z,90.60
2018-10-02T14:47:21.221Z,91.30
2018-10-02T14:49:50.210Z,91.10
2018-10-02T14:52:18.538Z,90.90
2018-10-02T14:54:47.799Z,91.00
2018-10-02T14:57:16.268Z,90.40
2018-10-02T14:59:44.626Z,90.50
2018-10-02T15:02:13.296Z,90.40
2018-10-02T15:04:42.693Z,89.80
2018-10-02T15:07:11.863Z,89.70
2018-10-02T15:09:42.150Z,85.20
2018-10-02T15:12:10.480Z,88.50
2018-10-02T15:14:39.700Z,87.20
2018-10-02T15:17:07.975Z,86.90
2018-10-02T15:19:37.285Z,86.60
2018-10-02T15:22:06.096Z,85.90
2018-10-02T15:24:34.379Z,85.00
2018-10-02T15:27:03.161Z,85.50
2018-10-02T15:29:32.069Z,82.70
2018-10-02T15:32:00.367Z,83.20
2018-10-02T15:34:28.639Z,84.40
2018-10-02T15:36:58.200Z,84.50
2018-10-02T15:39:28.019Z,84.70
2018-10-02T15:42:00.122Z,84.40
2018-10-02T15:44:32.282Z,83.70
2018-10-02T15:47:01.220Z,81.50
2018-10-02T15:49:30.408Z,82.10
2018-10-02T15:51:59.433Z,82.50
2018-10-02T15:54:35.706Z,84.10
2018-10-02T15:57:04.622Z,81.10
2018-10-02T16:02:08.293Z,82.80
2018-10-02T16:04:36.927Z,83.10
2018-10-02T16:07:05.269Z,84.50
2018-10-02T16:09:33.574Z,84.50
2018-10-02T16:12:01.872Z,82.80
2018-10-02T16:14:32.903Z,83.40
2018-10-02T16:17:01.540Z,83.80
2018-10-02T16:19:32.076Z,84.50
2018-10-02T16:22:01.222Z,84.00
2018-10-02T16:24:30.064Z,85.00
2018-10-02T16:26:58.737Z,85.50
2018-10-02T16:29:27.686Z,85.40
2018-10-02T16:31:56.013Z,85.20
2018-10-02T16:34:24.427Z,85.50
2018-10-02T16:36:52.807Z,85.20
2018-10-02T16:39:24.977Z,85.30
2018-10-02T16:41:53.264Z,86.00
2018-10-02T16:44:22.719Z,86.00
2018-10-02T16:46:51.011Z,86.40
2018-10-02T16:49:19.475Z,86.80
2018-10-02T16:51:47.993Z,86.00
2018-10-02T16:54:16.366Z,87.30
2018-10-02T16:56:44.810Z,87.10
2018-10-02T16:59:13.205Z,86.90
2018-10-02T17:01:41.495Z,86.90
2018-10-02T17:04:09.907Z,87.10
2018-10-02T17:06:38.203Z,86.80
2018-10-02T17:09:07.586Z,86.60
2018-10-02T17:11:35.990Z,86.70
2018-10-02T17:14:04.400Z,87.00
2018-10-02T17:16:32.744Z,86.80
2018-10-02T17:19:01.306Z,87.00
2018-10-02T17:21:29.761Z,87.40
2018-10-02T17:23:58.184Z,87.40
2018-10-02T17:26:26.721Z,87.90
2018-10-02T17:28:55.200Z,87.80
2018-10-02T17:31:23.524Z,87.70
2018-10-02T17:33:51.914Z,87.50
2018-10-02T17:36:21.138Z,87.40
2018-10-02T17:38:50.562Z,87.40
2018-10-02T17:41:19.526Z,87.50
2018-10-02T17:43:47.938Z,87.50
2018-10-02T17:46:16.281Z,87.40
2018-10-02T17:48:44.835Z,87.40
2018-10-02T17:51:13.215Z,87.70
2018-10-02T17:53:41.791Z,88.20
2018-10-02T17:56:10.114Z,88.00
2018-10-02T17:58:38.494Z,88.40
2018-10-02T18:01:21.568Z,88.20
2018-10-02T18:03:51.074Z,88.40
2018-10-02T18:09:12.350Z,88.50
2018-10-02T18:11:42.673Z,88.60
2018-10-02T18:14:12.710Z,88.80
2018-10-02T18:16:43.444Z,88.80
2018-10-02T18:19:12.964Z,89.10
2018-10-02T18:21:42.798Z,89.10
2018-10-02T18:24:11.959Z,88.30
2018-10-02T18:26:42.724Z,88.80
2018-10-02T18:29:13.011Z,89.00
2018-10-02T18:31:43.009Z,89.60
2018-10-02T18:34:13.129Z,89.50
2018-10-02T18:36:42.881Z,90.00
2018-10-02T18:39:11.893Z,90.00
2018-10-02T18:41:43.184Z,90.10
2018-10-02T18:44:15.719Z,90.10
2018-10-02T18:46:44.306Z,90.20
2018-10-02T18:49:12.971Z,90.00
2018-10-02T18:51:42.011Z,89.80
2018-10-02T18:54:10.532Z,89.60
2018-10-02T18:56:39.718Z,90.00
2018-10-02T18:59:08.172Z,90.10
2018-10-02T19:01:40.310Z,90.30
2018-10-02T19:04:08.712Z,90.50
2018-10-02T19:06:37.579Z,90.30
2018-10-02T19:09:17.958Z,90.30
2018-10-02T19:11:55.411Z,90.20
2018-10-02T19:14:27.912Z,90.20
2018-10-02T19:18:49.537Z,90.30
2018-10-02T19:21:20.191Z,90.40
2018-10-02T19:23:53.246Z,90.50
2018-10-02T19:26:26.287Z,90.40
2018-10-02T19:28:56.899Z,90.40
2018-10-02T19:31:37.759Z,90.40
2018-10-02T19:34:10.372Z,90.40
2018-10-02T19:36:42.476Z,90.50
2018-10-02T19:39:18.334Z,90.50
2018-10-02T19:41:50.964Z,90.40
2018-10-02T19:44:20.348Z,91.00
2018-10-02T19:46:52.004Z,90.70
2018-10-02T19:49:22.901Z,90.90
2018-10-02T19:52:01.901Z,90.90
2018-10-02T19:54:30.292Z,90.80
2018-10-02T19:56:58.757Z,90.70
2018-10-02T19:59:27.386Z,90.70
2018-10-02T20:01:55.770Z,90.70
2018-10-02T20:04:24.554Z,90.70
2018-10-02T20:06:52.819Z,91.00
2018-10-02T20:09:21.455Z,91.10
2018-10-02T20:11:50.878Z,91.20
2018-10-02T20:14:19.997Z,91.20
2018-10-02T20:16:48.490Z,91.50
2018-10-02T20:19:17.838Z,91.50
2018-10-02T20:21:46.640Z,91.40
2018-10-02T20:24:15.069Z,91.90
2018-10-02T20:26:44.885Z,91.70
2018-10-02T20:29:13.519Z,91.80
2018-10-02T20:31:43.731Z,91.90
2018-10-02T20:34:12.593Z,92.20
2018-10-02T20:36:41.048Z,91.90
2018-10-02T20:39:34.378Z,91.90
2018-10-02T20:42:02.810Z,91.60
2018-10-02T20:44:31.176Z,91.50
2018-10-02T20:47:00.755Z,91.60
2018-10-02T20:49:29.765Z,91.70
2018-10-02T20:51:58.068Z,91.60
2018-10-02T20:54:26.508Z,91.60
2018-10-02T20:56:54.848Z,91.50
2018-10-02T20:59:23.164Z,91.60
2018-10-02T21:01:51.530Z,91.50
2018-10-02T21:04:20.576Z,91.40
2018-10-02T21:06:49.694Z,91.40
2018-10-02T21:09:18.228Z,91.40
2018-10-02T21:11:46.653Z,91.50
2018-10-02T21:14:16.506Z,91.50
2018-10-02T21:16:44.810Z,91.30
2018-10-02T21:19:13.524Z,91.30
2018-10-02T21:21:41.887Z,91.40
2018-10-02T21:24:10.189Z,91.30
2018-10-02T21:26:38.772Z,91.30
2018-10-02T21:29:07.103Z,91.20
2018-10-02T21:31:35.480Z,91.20
2018-10-02T21:34:03.733Z,91.20
2018-10-02T21:36:32.086Z,91.10
2018-10-02T21:39:00.394Z,91.00
2018-10-02T21:41:28.701Z,91.00
2018-10-02T21:43:57.020Z,91.00
2018-10-02T21:46:26.421Z,91.00
2018-10-02T21:48:55.004Z,90.90
2018-10-02T21:51:24.188Z,91.10
2018-10-02T21:53:52.994Z,91.00
2018-10-02T21:56:21.549Z,91.10
2018-10-02T21:58:49.947Z,91.10
2018-10-02T22:01:18.247Z,91.10
2018-10-02T22:03:46.643Z,91.10
2018-10-02T22:06:14.959Z,91.00
2018-10-02T22:08:43.296Z,91.00
2018-10-02T22:11:11.556Z,91.10
2018-10-02T22:13:39.842Z,91.10
2018-10-02T22:16:08.494Z,91.40
2018-10-02T22:18:36.865Z,91.10
2018-10-02T22:21:05.571Z,91.10
2018-10-02T22:23:33.931Z,91.10
2018-10-02T22:26:02.310Z,91.00
2018-10-02T22:28:30.606Z,91.00
2018-10-02T22:30:58.879Z,91.00
2018-10-02T22:33:27.460Z,91.00
2018-10-02T22:35:56.693Z,91.10
2018-10-02T22:38:25.017Z,91.10
2018-10-02T22:40:54.530Z,91.10
2018-10-02T22:43:22.883Z,91.10
2018-10-02T22:45:51.182Z,91.20
2018-10-02T22:48:19.458Z,91.30
2018-10-02T22:50:47.734Z,91.30
2018-10-02T22:53:16.032Z,91.30
2018-10-02T22:55:44.972Z,91.30
2018-10-02T22:58:13.291Z,91.40
2018-10-02T23:00:41.585Z,91.40
2018-10-02T23:03:09.839Z,91.40
2018-10-02T23:05:38.066Z,91.50
2018-10-02T23:08:06.338Z,91.60
2018-10-02T23:10:34.909Z,91.60
2018-10-02T23:13:03.249Z,91.70
2018-10-02T23:15:31.629Z,91.90
2018-10-02T23:18:00.188Z,91.90
2018-10-02T23:20:28.450Z,91.80
2018-10-02T23:22:57.262Z,91.80
2018-10-02T23:25:25.612Z,91.70
2018-10-02T23:27:54.064Z,91.80
2018-10-02T23:30:22.400Z,92.00
2018-10-02T23:32:50.805Z,92.10
2018-10-02T23:35:19.052Z,92.30
2018-10-02T23:37:47.366Z,92.30
2018-10-02T23:40:15.980Z,92.40
2018-10-02T23:42:44.273Z,92.40
2018-10-02T23:45:12.657Z,92.40
2018-10-02T23:47:41.233Z,92.40
2018-10-02T23:50:10.378Z,92.40
2018-10-02T23:52:38.779Z,92.30
2018-10-02T23:55:07.354Z,92.50
2018-10-02T23:57:35.634Z,92.40
